createdAt,value
2019-01-05T00:02:34.047Z,8.13
2019-01-05T00:05:19.126Z,7.97
2019-01-05T00:08:11.730Z,7.43
2019-01-05T00:11:04.582Z,7.80
2019-01-05T00:13:54.350Z,8.17
2019-01-05T00:16:41.301Z,8.13
2019-01-05T00:19:34.331Z,8.50
2019-01-05T00:22:31.809Z,7.83
2019-01-05T00:25:18.584Z,8.17
2019-01-05T00:28:04.492Z,8.70
2019-01-05T00:31:07.244Z,8.57
2019-01-05T00:33:53.787Z,7.90
2019-01-05T00:36:51.049Z,8.27
2019-01-05T00:39:43.848Z,8.97
2019-01-05T00:42:40.188Z,8.33
2019-01-05T00:45:31.578Z,8.63
2019-01-05T00:48:31.584Z,8.27
2019-01-05T00:51:19.130Z,8.23
2019-01-05T00:54:04.845Z,8.47
2019-01-05T00:56:51.017Z,8.50
2019-01-05T00:59:38.741Z,8.67
2019-01-05T01:02:34.665Z,8.13
2019-01-05T01:05:29.462Z,8.43
2019-01-05T01:08:10.414Z,8.90
2019-01-05T01:10:57.188Z,8.40
2019-01-05T01:13:42.938Z,8.33
2019-01-05T01:16:22.046Z,8.13
2019-01-05T01:19:22.351Z,8.93
2019-01-05T01:22:14.692Z,8.77
2019-01-05T01:25:07.479Z,8.40
2019-01-05T01:27:53.339Z,8.90
2019-01-05T01:30:44.892Z,8.47
2019-01-05T01:33:31.901Z,8.77
2019-01-05T01:36:22.274Z,8.20
2019-01-05T01:39:23.129Z,8.97
2019-01-05T01:42:08.855Z,8.87
2019-01-05T01:45:05.381Z,9.03
2019-01-05T01:47:56.019Z,8.83
2019-01-05T01:50:44.019Z,8.47
2019-01-05T01:53:33.767Z,9.47
2019-01-05T01:56:27.119Z,9.73
2019-01-05T01:59:14.569Z,9.60
2019-01-05T02:02:06.373Z,9.53
2019-01-05T02:04:56.186Z,9.07
2019-01-05T02:07:49.309Z,9.47
2019-01-05T02:10:54.415Z,9.13
2019-01-05T02:13:43.621Z,9.77
2019-01-05T02:16:36.147Z,10.00
2019-01-05T02:19:48.283Z,9.33
2019-01-05T02:23:21.497Z,9.30
2019-01-05T02:26:42.827Z,9.40
2019-01-05T02:29:57.855Z,9.80
2019-01-05T02:33:27.605Z,9.53
2019-01-05T02:36:52.354Z,9.03
2019-01-05T02:40:07.409Z,9.57
2019-01-05T02:43:12.929Z,9.33
2019-01-05T02:46:43.034Z,9.33
2019-01-05T02:50:16.699Z,9.47
2019-01-05T02:53:19.619Z,9.17
2019-01-05T02:56:32.971Z,9.07
2019-01-05T03:00:06.546Z,8.83
2019-01-05T03:03:35.859Z,9.37
2019-01-05T03:07:03.599Z,9.87
2019-01-05T03:10:42.447Z,8.80
2019-01-05T03:14:09.425Z,9.67
2019-01-05T03:17:41.062Z,10.03
2019-01-05T03:21:24.061Z,9.50
2019-01-05T03:24:57.241Z,8.73
2019-01-05T03:28:28.408Z,9.50
2019-01-05T03:31:45.986Z,8.50
2019-01-05T03:35:21.084Z,9.37
2019-01-05T03:38:50.534Z,8.47
2019-01-05T03:42:21.873Z,9.37
2019-01-05T03:45:47.489Z,8.07
2019-01-05T03:49:26.784Z,8.70
2019-01-05T03:53:05.698Z,7.50
2019-01-05T03:56:36.577Z,7.93
2019-01-05T04:00:05.570Z,8.83
2019-01-05T04:03:42.119Z,8.67
2019-01-05T04:07:04.599Z,8.60
2019-01-05T04:10:31.368Z,8.70
2019-01-05T04:14:17.843Z,8.83
2019-01-05T04:17:53.891Z,8.83
2019-01-05T04:21:24.023Z,9.03
2019-01-05T04:24:57.134Z,8.87
2019-01-05T04:28:23.538Z,9.03
2019-01-05T04:32:07.152Z,8.80
2019-01-05T04:35:26.468Z,8.87
2019-01-05T04:38:58.842Z,9.57
2019-01-05T04:42:25.296Z,9.27
2019-01-05T04:45:39.306Z,9.40
2019-01-05T04:49:16.158Z,9.13
2019-01-05T04:53:08.631Z,9.10
2019-01-05T04:56:34.510Z,8.87
2019-01-05T04:59:46.317Z,9.03
2019-01-05T05:03:07.342Z,9.57
2019-01-05T05:06:30.520Z,9.03
2019-01-05T05:10:11.632Z,9.40
2019-01-05T05:13:57.786Z,9.30
2019-01-05T05:17:14.880Z,8.23
2019-01-05T05:20:29.760Z,9.33
2019-01-05T05:23:55.116Z,8.40
2019-01-05T05:27:19.776Z,8.83
2019-01-05T05:30:45.001Z,9.10
2019-01-05T05:34:13.555Z,8.43
2019-01-05T05:37:35.090Z,9.07
2019-01-05T05:41:06.955Z,9.87
2019-01-05T05:44:36.672Z,9.73
2019-01-05T05:48:21.054Z,9.90
2019-01-05T05:51:47.958Z,10.17
2019-01-05T05:55:12.014Z,9.77
2019-01-05T05:58:30.518Z,9.83
2019-01-05T06:02:03.780Z,9.07
2019-01-05T06:05:46.068Z,10.33
2019-01-05T06:09:28.806Z,9.97
2019-01-05T06:12:48.811Z,10.27
2019-01-05T06:16:12.718Z,10.97
2019-01-05T06:19:29.041Z,10.87
2019-01-05T06:22:54.288Z,10.33
2019-01-05T06:26:47.370Z,10.60
2019-01-05T06:30:19.017Z,9.50
2019-01-05T06:33:54.686Z,10.23
2019-01-05T06:36:56.787Z,11.30
2019-01-05T06:40:30.930Z,11.40
2019-01-05T06:43:46.252Z,10.40
2019-01-05T06:47:15.970Z,10.60
2019-01-05T06:50:54.700Z,10.73
2019-01-05T06:54:44.798Z,10.17
2019-01-05T06:58:13.570Z,10.53
2019-01-05T07:01:48.952Z,11.13
2019-01-05T07:05:09.226Z,10.00
2019-01-05T07:08:46.554Z,10.20
2019-01-05T07:12:10.100Z,9.63
2019-01-05T07:15:29.876Z,10.23
2019-01-05T07:19:03.332Z,10.50
2019-01-05T07:22:46.468Z,10.07
2019-01-05T07:26:09.682Z,10.30
2019-01-05T07:29:39.538Z,9.97
2019-01-05T07:32:51.973Z,9.60
2019-01-05T07:36:10.204Z,9.57
2019-01-05T07:39:31.126Z,9.30
2019-01-05T07:43:03.226Z,12.00
2019-01-05T07:46:15.421Z,6.93
2019-01-05T07:49:38.572Z,7.03
2019-01-05T07:53:22.591Z,6.37
2019-01-05T07:57:23.242Z,6.33
2019-01-05T08:00:49.705Z,5.80
2019-01-05T08:04:19.569Z,6.60
2019-01-05T08:08:02.462Z,6.17
2019-01-05T08:11:40.919Z,5.77
2019-01-05T08:15:20.172Z,5.63
2019-01-05T08:18:56.507Z,5.07
2019-01-05T08:22:26.099Z,5.60
2019-01-05T08:25:52.257Z,4.90
2019-01-05T08:29:23.967Z,4.63
2019-01-05T08:33:06.297Z,4.87
2019-01-05T08:36:35.533Z,5.17
2019-01-05T08:40:13.253Z,5.00
2019-01-05T08:43:40.125Z,4.50
2019-01-05T08:47:02.626Z,5.23
2019-01-05T08:50:54.946Z,4.90
2019-01-05T08:54:06.102Z,4.07
2019-01-05T08:58:07.897Z,4.17
2019-01-05T09:01:53.205Z,5.30
2019-01-05T09:05:33.808Z,4.30
2019-01-05T09:09:03.921Z,4.07
2019-01-05T09:12:12.433Z,4.53
2019-01-05T09:16:05.131Z,4.43
2019-01-05T09:20:01.423Z,4.70
2019-01-05T09:23:31.033Z,4.53
2019-01-05T09:26:54.371Z,4.73
2019-01-05T09:30:11.811Z,4.73
2019-01-05T09:33:41.205Z,4.80
2019-01-05T09:37:03.610Z,4.90
2019-01-05T09:41:03.166Z,5.07
2019-01-05T09:45:34.826Z,4.97
2019-01-05T09:49:07.963Z,4.80
2019-01-05T09:52:57.386Z,4.80
2019-01-05T09:56:27.936Z,4.40
2019-01-05T09:59:42.392Z,4.47
2019-01-05T10:03:16.972Z,4.30
2019-01-05T10:06:43.495Z,4.17
2019-01-05T10:10:12.068Z,3.70
2019-01-05T10:14:09.888Z,4.27
2019-01-05T10:17:33.547Z,3.73
2019-01-05T10:21:16.090Z,3.60
2019-01-05T10:24:38.862Z,3.33
2019-01-05T10:28:29.843Z,3.20
2019-01-05T10:31:56.185Z,3.07
2019-01-05T10:35:31.269Z,3.00
2019-01-05T10:38:57.981Z,2.80
2019-01-05T10:42:30.512Z,2.73
2019-01-05T10:45:59.746Z,2.93
2019-01-05T10:49:36.145Z,2.93
2019-01-05T10:53:00.108Z,2.60
2019-01-05T10:56:25.602Z,2.67
2019-01-05T11:00:10.474Z,2.20
2019-01-05T11:03:41.204Z,2.40
2019-01-05T11:07:02.572Z,2.40
2019-01-05T11:10:50.804Z,2.40
2019-01-05T11:14:20.621Z,2.10
2019-01-05T11:17:45.795Z,2.47
2019-01-05T11:20:56.299Z,2.30
2019-01-05T11:24:49.157Z,2.23
2019-01-05T11:28:16.698Z,2.10
2019-01-05T11:31:59.398Z,2.20
2019-01-05T11:35:31.668Z,2.30
2019-01-05T11:38:56.591Z,2.10
2019-01-05T11:42:47.385Z,2.20
2019-01-05T11:46:23.727Z,2.17
2019-01-05T11:49:56.369Z,2.10
2019-01-05T11:53:51.335Z,2.10
2019-01-05T11:57:36.870Z,1.83
2019-01-05T12:00:47.803Z,1.90
2019-01-05T12:04:21.615Z,1.80
2019-01-05T12:07:47.889Z,2.00
2019-01-05T12:11:20.475Z,1.80
2019-01-05T12:14:52.855Z,1.80
2019-01-05T12:18:15.001Z,1.80
2019-01-05T12:21:51.509Z,1.70
2019-01-05T12:25:24.650Z,1.80
2019-01-05T12:29:17.619Z,1.60
2019-01-05T12:32:51.724Z,1.80
2019-01-05T12:36:59.771Z,1.90
2019-01-05T12:40:17.215Z,1.70
2019-01-05T12:43:39.915Z,1.70
2019-01-05T12:47:03.735Z,1.83
2019-01-05T12:50:37.137Z,1.70
2019-01-05T12:53:48.915Z,1.57
2019-01-05T12:57:22.197Z,1.63
2019-01-05T13:00:34.747Z,1.73
2019-01-05T13:04:04.051Z,1.90
2019-01-05T13:07:50.227Z,1.80
2019-01-05T13:11:32.283Z,1.70
2019-01-05T13:14:57.203Z,1.43
2019-01-05T13:18:32.495Z,1.47
2019-01-05T13:21:55.085Z,1.60
2019-01-05T13:25:33.748Z,1.53
2019-01-05T13:29:15.536Z,1.60
2019-01-05T13:32:57.787Z,1.23
2019-01-05T13:36:28.042Z,1.20
2019-01-05T13:39:58.192Z,1.27
2019-01-05T13:43:31.574Z,1.40
2019-01-05T13:46:50.221Z,1.23
2019-01-05T13:50:08.931Z,1.47
2019-01-05T13:53:28.605Z,1.30
2019-01-05T13:56:31.812Z,1.60
2019-01-05T13:59:10.396Z,1.17
2019-01-05T14:01:59.794Z,1.30
2019-01-05T14:04:55.608Z,1.60
2019-01-05T14:07:48.364Z,1.50
2019-01-05T14:10:33.506Z,1.40
2019-01-05T14:14:56.676Z,1.40
2019-01-05T14:17:42.435Z,1.40
2019-01-05T14:20:29.207Z,1.60
2019-01-05T14:23:14.927Z,1.30
2019-01-05T14:26:00.671Z,1.40
2019-01-05T14:28:43.128Z,1.33
2019-01-05T14:31:35.466Z,1.50
2019-01-05T14:34:29.647Z,1.50
2019-01-05T14:37:22.206Z,1.50
2019-01-05T14:40:15.870Z,1.47
2019-01-05T14:43:01.771Z,1.20
2019-01-05T14:45:48.549Z,1.47
2019-01-05T14:48:33.884Z,1.20
2019-01-05T14:51:24.899Z,1.40
2019-01-05T14:54:23.809Z,1.50
2019-01-05T14:57:03.675Z,1.50
2019-01-05T14:59:50.585Z,1.53
2019-01-05T15:02:33.614Z,1.37
2019-01-05T15:05:23.217Z,1.50
2019-01-05T15:08:08.687Z,1.40
2019-01-05T15:10:53.824Z,1.50
2019-01-05T15:13:40.615Z,1.13
2019-01-05T15:16:26.163Z,1.57
2019-01-05T15:19:11.329Z,1.30
2019-01-05T15:22:12.933Z,1.40
2019-01-05T15:25:17.825Z,1.40
2019-01-05T15:28:03.259Z,1.43
2019-01-05T15:31:01.835Z,1.40
2019-01-05T15:33:46.245Z,1.30
2019-01-05T15:36:36.773Z,2.60
2019-01-05T15:39:28.916Z,1.80
2019-01-05T15:42:20.031Z,1.40
2019-01-05T15:45:05.256Z,1.53
2019-01-05T15:47:50.449Z,1.50
2019-01-05T15:50:36.524Z,1.40
2019-01-05T15:53:18.664Z,1.60
2019-01-05T15:56:03.967Z,1.50
2019-01-05T15:58:49.159Z,1.50
2019-01-05T16:01:31.567Z,1.60
2019-01-05T16:04:18.374Z,1.43
2019-01-05T16:07:03.855Z,1.37
2019-01-05T16:09:50.062Z,1.80
2019-01-05T16:12:36.840Z,1.50
2019-01-05T16:15:23.116Z,1.57
2019-01-05T16:18:08.316Z,1.40
2019-01-05T16:20:53.500Z,1.30
2019-01-05T16:23:52.682Z,1.50
2019-01-05T16:26:38.792Z,1.67
2019-01-05T16:29:34.370Z,1.70
2019-01-05T16:32:21.286Z,1.60
2019-01-05T16:35:06.733Z,1.40
2019-01-05T16:38:11.386Z,1.50
2019-01-05T16:40:54.230Z,1.37
2019-01-05T16:43:46.705Z,1.77
2019-01-05T16:46:42.562Z,1.53
2019-01-05T16:49:27.958Z,1.53
2019-01-05T16:52:27.084Z,1.60
2019-01-05T16:55:13.902Z,1.60
2019-01-05T16:58:15.959Z,1.30
2019-01-05T17:01:01.279Z,1.60
2019-01-05T17:03:53.791Z,1.60
2019-01-05T17:06:40.748Z,1.60
2019-01-05T17:09:36.290Z,1.70
2019-01-05T17:12:28.928Z,1.40
2019-01-05T17:15:16.350Z,1.40
2019-01-05T17:18:06.087Z,1.50
2019-01-05T17:21:05.241Z,1.50
2019-01-05T17:23:51.937Z,1.30
2019-01-05T17:26:37.090Z,1.43
2019-01-05T17:29:18.890Z,1.67
2019-01-05T17:32:04.154Z,2.00
2019-01-05T17:34:59.493Z,1.50
2019-01-05T17:37:49.098Z,1.50
2019-01-05T17:40:35.940Z,1.23
2019-01-05T17:43:22.731Z,1.20
2019-01-05T17:46:00.551Z,1.53
2019-01-05T17:48:50.147Z,1.67
2019-01-05T17:51:47.262Z,1.50
2019-01-05T17:54:40.855Z,1.40
2019-01-05T17:57:27.714Z,1.53
2019-01-05T18:00:15.177Z,1.50
2019-01-05T18:03:00.982Z,1.47
2019-01-05T18:05:47.783Z,1.43
2019-01-05T18:08:40.667Z,1.83
2019-01-05T18:11:30.358Z,1.40
2019-01-05T18:14:15.673Z,1.20
2019-01-05T18:17:18.134Z,1.50
2019-01-05T18:20:07.861Z,1.40
2019-01-05T18:23:09.786Z,1.47
2019-01-05T18:25:52.395Z,1.40
2019-01-05T18:28:45.013Z,1.50
2019-01-05T18:31:34.710Z,1.40
2019-01-05T18:34:20.101Z,1.40
2019-01-05T18:37:18.777Z,1.50
2019-01-05T18:40:04.175Z,1.40
2019-01-05T18:42:51.539Z,1.30
2019-01-05T18:45:37.070Z,1.50
2019-01-05T18:48:34.290Z,1.67
2019-01-05T18:51:30.153Z,1.43
2019-01-05T18:54:32.134Z,1.50
2019-01-05T18:57:17.766Z,1.30
2019-01-05T19:00:13.628Z,1.40
2019-01-05T19:03:00.441Z,1.50
2019-01-05T19:05:44.104Z,1.50
2019-01-05T19:08:33.666Z,1.60
2019-01-05T19:11:29.702Z,2.10
2019-01-05T19:15:32.883Z,1.80
2019-01-05T19:18:38.059Z,1.50
2019-01-05T19:21:23.442Z,1.33
2019-01-05T19:24:09.186Z,1.37
2019-01-05T19:26:54.760Z,1.37
2019-01-05T19:29:50.680Z,1.50
2019-01-05T19:32:52.624Z,1.40
2019-01-05T19:35:48.507Z,1.40
2019-01-05T19:38:48.491Z,1.43
2019-01-05T19:41:33.938Z,1.40
2019-01-05T19:44:32.660Z,1.60
2019-01-05T19:47:28.936Z,1.30
2019-01-05T19:50:14.354Z,1.20
2019-01-05T19:53:16.462Z,1.33
2019-01-05T19:56:02.118Z,1.40
2019-01-05T19:58:57.962Z,1.20
2019-01-05T20:01:47.770Z,1.40
2019-01-05T20:04:51.726Z,1.50
2019-01-05T20:07:44.276Z,1.50
2019-01-05T20:10:33.900Z,1.33
2019-01-05T20:13:32.689Z,1.30
2019-01-05T20:16:22.310Z,1.20
2019-01-05T20:19:03.874Z,1.30
2019-01-05T20:21:44.576Z,1.30
2019-01-05T20:24:26.160Z,1.60
2019-01-05T20:27:14.914Z,1.43
2019-01-05T20:30:00.019Z,1.30
2019-01-05T20:32:45.365Z,1.40
2019-01-05T20:35:31.138Z,1.40
2019-01-05T20:38:16.969Z,1.30
2019-01-05T20:41:02.670Z,1.37
2019-01-05T20:43:47.859Z,1.27
2019-01-05T20:46:33.667Z,1.37
2019-01-05T20:49:21.622Z,1.30
2019-01-05T20:52:09.416Z,1.30
2019-01-05T20:55:06.993Z,1.40
2019-01-05T20:57:56.307Z,1.10
2019-01-05T21:00:45.917Z,1.40
2019-01-05T21:03:41.643Z,1.47
2019-01-05T21:06:31.160Z,1.47
2019-01-05T21:09:17.947Z,1.40
2019-01-05T21:12:03.711Z,1.40
2019-01-05T21:15:08.924Z,1.33
2019-01-05T21:18:01.416Z,1.53
2019-01-05T21:21:06.423Z,1.30
2019-01-05T21:23:51.605Z,1.17
2019-01-05T21:26:38.787Z,1.30
2019-01-05T21:29:24.216Z,1.37
2019-01-05T21:32:08.430Z,1.30
2019-01-05T21:35:01.105Z,1.33
2019-01-05T21:37:46.551Z,1.33
2019-01-05T21:40:32.207Z,1.23
2019-01-05T21:43:17.421Z,1.30
2019-01-05T21:46:04.178Z,1.60
2019-01-05T21:48:49.558Z,1.30
2019-01-05T21:51:48.211Z,1.40
2019-01-05T21:54:33.781Z,1.30
2019-01-05T21:57:21.445Z,1.47
2019-01-05T22:00:16.830Z,1.30
2019-01-05T22:03:02.216Z,1.20
2019-01-05T22:05:57.614Z,1.20
2019-01-05T22:08:44.372Z,1.20
2019-01-05T22:11:22.403Z,1.37
2019-01-05T22:14:07.769Z,1.20
2019-01-05T22:16:53.036Z,1.30
2019-01-05T22:19:28.817Z,1.43
2019-01-05T22:22:24.208Z,1.27
2019-01-05T22:25:09.794Z,1.30
2019-01-05T22:28:02.156Z,1.40
2019-01-05T22:30:51.704Z,1.50
2019-01-05T22:33:34.166Z,1.40
2019-01-05T22:36:30.794Z,1.30
2019-01-05T22:39:17.626Z,1.47
2019-01-05T22:42:03.351Z,1.47
2019-01-05T22:44:49.806Z,1.40
2019-01-05T22:47:42.547Z,1.33
2019-01-05T22:50:38.430Z,1.60
2019-01-05T22:53:34.170Z,1.37
2019-01-05T22:56:19.650Z,1.30
2019-01-05T22:59:06.416Z,1.43
2019-01-05T23:01:52.098Z,1.37
2019-01-05T23:04:39.343Z,1.30
2019-01-05T23:07:26.457Z,1.30
2019-01-05T23:10:11.536Z,1.30
2019-01-05T23:12:56.629Z,1.50
2019-01-05T23:15:42.330Z,1.30
2019-01-05T23:18:28.047Z,1.27
2019-01-05T23:21:20.646Z,1.40
2019-01-05T23:24:25.774Z,1.47
2019-01-05T23:27:15.082Z,1.47
2019-01-05T23:30:10.852Z,1.40
2019-01-05T23:33:03.496Z,1.27
2019-01-05T23:35:48.029Z,1.23
2019-01-05T23:38:50.103Z,1.27
2019-01-05T23:41:35.107Z,1.30
2019-01-05T23:44:20.481Z,1.43
2019-01-05T23:47:18.996Z,1.50
2019-01-05T23:50:01.519Z,1.40
2019-01-05T23:52:50.403Z,1.47
2019-01-05T23:55:26.292Z,1.40
2019-01-05T23:58:53.304Z,1.30
